Grand Strand Airport
KCRE : now visible

Airfield :











YOU CAN JOIN US ON...

 
LOGIN :

Register | Disclaimer

   EN    FR    IT 

 









Legend :    VFR   Marginal VFR   IFR   Intensive IFR   Very Intensive IFR
Visi :
Ceiling :
>= 8 km
>= 3000ft
5 to 8 km
1000 to 3000 ft
1500m to 5 km
500 to 1000 ft
800 to 1500m
200 to 500 ft
< 800m
< 200 ft
Symbols :   Thunderstorms  Fog  Heavy snow  Heavy precipitations  Wind > 20 kt







- Airport Elevation : 32 ft


KCRE - Grand Strand

CURRENT METAR :
  • 210653Z AUTO 25005KT 10SM CLR 27/24 A3002 RMK AO1 SLP165 T02670244

EXPIRED METARs :
  • 210553Z AUTO 24007KT 10SM CLR 27/25 A3003 RMK AO1 SLP170 T02720250 10283 20267 58001
  • 210453Z AUTO 25008KT 10SM CLR 27/25 A3005 RMK AO1 SLP176 T02720250 403060239

TAF KCRE
Valid from the 21 at 06:00 until the 22 at 06:00 UTC


210522Z 2106/2206 24006KT P6SM SKC
FM211700 21013G22KT P6SM FEW050
FM220200 21010KT P6SM SKC
KZJX FIR / North America



MET'MAP, your aeronautical weather chart ! - Copyright ORBIFLY December 2007 - Disclaimer

ORBIFLY MET'MAP TEAM :

Programming & Development : Alexandra Zaïnal
Concept & Development : Baudouin d'Aumeries
Co-Development & Prog : Marc-Olivier Méhu
Technical & hardware support : Manuel Goepfert

Contact : metmap@orbifly.com




SOURCES & CREDITS :

   NOAA       Earth
Advisory